createdAt,value
2022-09-02T00:01:24.485Z,13.32
2022-09-02T00:03:52.913Z,13.33
2022-09-02T00:06:20.062Z,13.35
2022-09-02T00:08:47.320Z,13.39
2022-09-02T00:11:17.398Z,13.31
2022-09-02T00:13:45.662Z,13.31
2022-09-02T00:16:13.858Z,13.26
2022-09-02T00:18:46.016Z,13.22
2022-09-02T00:21:15.159Z,13.26
2022-09-02T00:23:44.025Z,13.23
2022-09-02T00:26:12.541Z,13.19
2022-09-02T00:28:40.801Z,13.23
2022-09-02T00:31:17.723Z,13.25
2022-09-02T00:33:44.992Z,13.27
2022-09-02T00:36:13.036Z,13.24
2022-09-02T00:38:40.228Z,13.22
2022-09-02T00:41:10.132Z,13.17
2022-09-02T00:43:45.580Z,13.18
2022-09-02T00:46:17.126Z,13.23
2022-09-02T00:48:53.990Z,13.21
2022-09-02T00:51:21.930Z,13.23
2022-09-02T00:53:49.994Z,13.21
2022-09-02T00:56:25.547Z,13.20
2022-09-02T00:58:54.234Z,13.21
2022-09-02T01:01:22.787Z,13.17
2022-09-02T01:03:50.559Z,13.18
2022-09-02T01:06:22.117Z,13.09
2022-09-02T01:08:57.151Z,12.98
2022-09-02T01:11:32.297Z,12.94
2022-09-02T01:13:59.715Z,12.82
2022-09-02T01:16:33.000Z,12.72
2022-09-02T01:19:03.840Z,12.74
2022-09-02T01:21:31.143Z,12.79
2022-09-02T01:23:58.245Z,12.72
2022-09-02T01:26:25.186Z,12.85
2022-09-02T01:28:52.914Z,12.85
2022-09-02T01:31:22.971Z,12.77
2022-09-02T01:33:51.433Z,12.79
2022-09-02T01:36:21.749Z,13.01
2022-09-02T01:38:49.063Z,12.90
2022-09-02T01:41:16.682Z,12.80
2022-09-02T01:43:47.101Z,12.77
2022-09-02T01:46:16.723Z,12.83
2022-09-02T01:48:43.795Z,12.83
2022-09-02T01:51:17.072Z,12.86
2022-09-02T01:53:45.164Z,12.93
2022-09-02T01:56:12.832Z,12.95
2022-09-02T01:58:42.884Z,12.88
2022-09-02T02:01:11.679Z,12.90
2022-09-02T02:03:41.652Z,12.85
2022-09-02T02:06:16.582Z,12.78
2022-09-02T02:08:45.110Z,12.77
2022-09-02T02:11:19.851Z,12.71
2022-09-02T02:13:50.224Z,12.68
2022-09-02T02:16:19.470Z,12.59
2022-09-02T02:18:47.653Z,12.63
2022-09-02T02:21:14.763Z,12.66
2022-09-02T02:23:42.022Z,12.68
2022-09-02T02:26:09.057Z,12.57
2022-09-02T02:28:37.351Z,12.72
2022-09-02T02:31:05.891Z,12.57
2022-09-02T02:33:35.977Z,12.50
2022-09-02T02:36:06.482Z,12.50
2022-09-02T02:38:35.071Z,12.46
2022-09-02T02:41:06.393Z,12.44
2022-09-02T02:43:37.393Z,12.46
2022-09-02T02:46:04.754Z,12.37
2022-09-02T02:48:32.926Z,12.34
2022-09-02T02:51:00.434Z,12.41
2022-09-02T02:53:31.243Z,12.44
2022-09-02T02:56:01.656Z,12.41
2022-09-02T02:58:29.283Z,12.42
2022-09-02T03:00:57.755Z,12.35
2022-09-02T03:03:25.134Z,12.39
2022-09-02T03:05:54.931Z,12.26
2022-09-02T03:08:25.937Z,12.26
2022-09-02T03:10:56.320Z,12.23
2022-09-02T03:13:26.980Z,12.16
2022-09-02T03:15:59.776Z,12.17
2022-09-02T03:18:29.185Z,12.13
2022-09-02T03:20:58.130Z,12.02
2022-09-02T03:23:25.570Z,11.98
2022-09-02T03:25:52.851Z,11.98
2022-09-02T03:28:33.773Z,11.99
2022-09-02T03:31:03.078Z,11.99
2022-09-02T03:33:31.158Z,12.03
2022-09-02T03:35:58.267Z,12.17
2022-09-02T03:38:26.387Z,12.08
2022-09-02T03:40:53.694Z,11.98
2022-09-02T03:43:21.057Z,11.97
2022-09-02T03:45:49.315Z,11.90
2022-09-02T03:48:17.375Z,11.80
2022-09-02T03:50:47.242Z,11.67
2022-09-02T03:53:20.196Z,11.67
2022-09-02T03:55:56.739Z,11.72
2022-09-02T03:58:26.517Z,11.57
2022-09-02T04:00:55.719Z,11.61
2022-09-02T04:03:24.751Z,11.66
2022-09-02T04:05:52.651Z,11.68
2022-09-02T04:08:22.345Z,11.73
2022-09-02T04:10:53.652Z,11.67
2022-09-02T04:13:20.593Z,11.69
2022-09-02T04:15:49.244Z,11.75
2022-09-02T04:18:18.369Z,11.82
2022-09-02T04:20:45.598Z,11.48
2022-09-02T04:23:13.413Z,11.53
2022-09-02T04:25:44.151Z,11.56
2022-09-02T04:28:13.297Z,11.54
2022-09-02T04:30:42.369Z,11.46
2022-09-02T04:33:13.951Z,11.69
2022-09-02T04:35:43.629Z,11.60
2022-09-02T04:38:12.022Z,11.63
2022-09-02T04:40:46.026Z,11.62
2022-09-02T04:43:14.863Z,11.63
2022-09-02T04:45:44.774Z,11.65
2022-09-02T04:48:14.693Z,11.62
2022-09-02T04:50:43.060Z,11.70
2022-09-02T04:53:10.879Z,11.72
2022-09-02T04:55:41.209Z,11.77
2022-09-02T04:58:11.379Z,11.78
2022-09-02T05:00:40.571Z,11.83
2022-09-02T05:03:11.883Z,11.82
2022-09-02T05:05:40.808Z,11.85
2022-09-02T05:08:13.235Z,11.85
2022-09-02T05:10:42.998Z,12.07
2022-09-02T05:13:12.466Z,12.03
2022-09-02T05:15:40.904Z,11.98
2022-09-02T05:18:10.396Z,11.97
2022-09-02T05:20:40.535Z,12.03
2022-09-02T05:23:08.764Z,12.13
2022-09-02T05:25:37.827Z,12.22
2022-09-02T05:28:06.450Z,12.46
2022-09-02T05:30:38.805Z,12.43
2022-09-02T05:33:07.607Z,12.44
2022-09-02T05:35:45.392Z,12.41
2022-09-02T05:38:17.312Z,12.46
2022-09-02T05:40:46.018Z,12.63
2022-09-02T05:43:13.230Z,12.87
2022-09-02T05:45:40.935Z,13.41
2022-09-02T05:48:28.201Z,13.48
2022-09-02T05:50:57.717Z,13.64
2022-09-02T05:53:29.431Z,13.69
2022-09-02T05:55:57.400Z,13.76
2022-09-02T05:58:25.140Z,14.33
2022-09-02T06:00:54.184Z,14.41
2022-09-02T06:03:22.004Z,14.58
2022-09-02T06:06:04.362Z,14.80
2022-09-02T06:08:34.778Z,15.09
2022-09-02T06:11:02.599Z,14.88
2022-09-02T06:13:30.828Z,14.79
2022-09-02T06:15:58.128Z,14.72
2022-09-02T06:18:29.891Z,14.73
2022-09-02T06:20:59.561Z,14.76
2022-09-02T06:23:35.224Z,14.88
2022-09-02T06:26:03.409Z,15.01
2022-09-02T06:28:34.794Z,15.06
2022-09-02T06:31:13.456Z,15.13
2022-09-02T06:33:46.516Z,15.05
2022-09-02T06:36:21.435Z,15.23
2022-09-02T06:38:52.269Z,15.36
2022-09-02T06:41:23.578Z,15.40
2022-09-02T06:43:54.972Z,15.52
2022-09-02T06:46:30.089Z,15.56
2022-09-02T06:49:02.447Z,15.92
2022-09-02T06:51:39.485Z,17.36
2022-09-02T06:54:09.281Z,20.06
2022-09-02T06:56:38.862Z,22.07
2022-09-02T06:59:07.856Z,23.19
2022-09-02T07:01:52.106Z,24.01
2022-09-02T07:04:40.600Z,24.65
2022-09-02T07:07:09.890Z,25.17
2022-09-02T07:09:42.719Z,25.55
2022-09-02T07:12:20.266Z,25.78
2022-09-02T07:14:53.359Z,25.94
2022-09-02T07:17:32.299Z,25.96
2022-09-02T07:20:06.003Z,26.05
2022-09-02T07:22:39.453Z,26.29
2022-09-02T07:25:11.505Z,26.43
2022-09-02T07:27:38.875Z,26.25
2022-09-02T07:30:06.909Z,26.67
2022-09-02T07:32:37.940Z,26.71
2022-09-02T07:35:07.602Z,26.74
2022-09-02T07:37:37.112Z,26.45
2022-09-02T07:40:11.651Z,26.66
2022-09-02T07:42:39.997Z,27.32
2022-09-02T07:45:09.225Z,27.67
2022-09-02T07:47:39.060Z,27.42
2022-09-02T07:50:22.433Z,27.76
2022-09-02T07:52:55.369Z,27.75
2022-09-02T07:55:23.842Z,28.26
2022-09-02T07:57:52.465Z,28.05
2022-09-02T08:00:21.251Z,28.27
2022-09-02T08:02:51.027Z,28.08
2022-09-02T08:05:24.071Z,28.42
2022-09-02T08:07:51.542Z,28.35
2022-09-02T08:10:21.017Z,28.37
2022-09-02T08:12:48.408Z,28.82
2022-09-02T08:15:16.452Z,28.47
2022-09-02T08:17:44.405Z,28.26
2022-09-02T08:20:12.853Z,27.88
2022-09-02T08:22:41.286Z,28.01
2022-09-02T08:25:12.017Z,28.69
2022-09-02T08:27:40.078Z,28.18
2022-09-02T08:30:12.040Z,28.25
2022-09-02T08:32:40.176Z,28.49
2022-09-02T08:35:09.728Z,28.85
2022-09-02T08:37:37.559Z,28.98
2022-09-02T08:40:08.698Z,28.96
2022-09-02T08:42:40.936Z,28.64
2022-09-02T08:45:27.617Z,28.40
2022-09-02T08:48:01.044Z,28.56
2022-09-02T08:50:31.021Z,29.46
2022-09-02T08:53:09.105Z,29.56
2022-09-02T08:55:58.223Z,29.17
2022-09-02T08:58:29.210Z,28.84
2022-09-02T09:01:06.116Z,28.98
2022-09-02T09:04:07.874Z,28.53
2022-09-02T09:06:43.893Z,28.89
2022-09-02T09:09:36.695Z,28.18
2022-09-02T09:12:42.525Z,27.87
2022-09-02T09:15:38.542Z,27.90
2022-09-02T09:18:11.372Z,27.90
2022-09-02T09:20:41.343Z,28.29
2022-09-02T09:23:34.203Z,27.96
2022-09-02T09:26:07.174Z,27.58
2022-09-02T09:28:47.154Z,28.07
2022-09-02T09:31:20.349Z,28.02
2022-09-02T09:34:04.674Z,27.78
2022-09-02T09:36:43.019Z,27.79
2022-09-02T09:39:23.575Z,27.41
2022-09-02T09:41:56.622Z,26.65
2022-09-02T09:44:48.285Z,26.67
2022-09-02T09:47:25.737Z,26.45
2022-09-02T09:50:13.831Z,26.96
2022-09-02T09:52:40.857Z,27.09
2022-09-02T09:55:24.990Z,26.22
2022-09-02T09:58:09.392Z,26.31
2022-09-02T10:00:41.468Z,26.81
2022-09-02T10:03:08.903Z,26.23
2022-09-02T10:05:40.755Z,25.33
2022-09-02T10:08:16.964Z,25.38
2022-09-02T10:11:00.722Z,25.36
2022-09-02T10:13:33.253Z,25.21
2022-09-02T10:16:11.531Z,25.28
2022-09-02T10:18:58.561Z,24.99
2022-09-02T10:22:04.291Z,25.22
2022-09-02T10:24:31.940Z,25.44
2022-09-02T10:27:00.608Z,25.52
2022-09-02T10:29:52.099Z,25.34
2022-09-02T10:32:30.350Z,25.03
2022-09-02T10:35:21.844Z,24.77
2022-09-02T10:38:26.980Z,25.11
2022-09-02T10:41:10.223Z,24.92
2022-09-02T10:44:03.334Z,24.96
2022-09-02T10:46:42.394Z,24.87
2022-09-02T10:49:28.980Z,24.65
2022-09-02T10:52:10.501Z,24.68
2022-09-02T10:54:55.527Z,24.82
2022-09-02T10:57:48.605Z,24.76
2022-09-02T11:00:20.814Z,24.82
2022-09-02T11:03:00.196Z,24.11
2022-09-02T11:05:51.948Z,24.16
2022-09-02T11:08:43.634Z,24.21
2022-09-02T11:11:22.645Z,24.19
2022-09-02T11:14:15.622Z,23.89
2022-09-02T11:16:52.435Z,24.05
2022-09-02T11:19:26.788Z,23.56
2022-09-02T11:22:11.903Z,23.35
2022-09-02T11:24:47.302Z,23.60
2022-09-02T11:27:43.048Z,23.78
2022-09-02T11:30:12.784Z,23.81
2022-09-02T11:32:59.770Z,23.60
2022-09-02T11:35:31.047Z,23.71
2022-09-02T11:38:05.665Z,23.50
2022-09-02T11:41:32.547Z,23.48
2022-09-02T11:46:34.163Z,23.17
2022-09-02T11:49:26.147Z,23.02
2022-09-02T11:51:59.111Z,23.02
2022-09-02T11:54:37.481Z,23.14
2022-09-02T11:57:06.664Z,23.19
2022-09-02T12:00:07.778Z,23.14
2022-09-02T12:02:45.822Z,23.23
2022-09-02T12:05:32.096Z,23.10
2022-09-02T12:08:04.421Z,22.89
2022-09-02T12:10:43.735Z,22.97
2022-09-02T12:13:32.164Z,23.08
2022-09-02T12:16:19.534Z,22.74
2022-09-02T12:19:07.475Z,22.71
2022-09-02T12:21:35.727Z,22.86
2022-09-02T12:24:09.522Z,22.86
2022-09-02T12:26:36.692Z,22.71
2022-09-02T12:29:19.285Z,22.66
2022-09-02T12:31:49.783Z,22.68
2022-09-02T12:34:25.855Z,22.64
2022-09-02T12:37:00.716Z,22.63
2022-09-02T12:39:27.805Z,22.68
2022-09-02T12:42:01.179Z,22.51
2022-09-02T12:44:51.600Z,22.49
2022-09-02T12:47:49.295Z,22.61
2022-09-02T12:50:22.415Z,22.67
2022-09-02T12:53:11.246Z,22.70
2022-09-02T12:55:40.224Z,22.81
2022-09-02T12:58:15.493Z,22.62
2022-09-02T13:01:14.651Z,22.70
2022-09-02T13:03:57.796Z,22.76
2022-09-02T13:06:51.352Z,22.68
2022-09-02T13:09:58.174Z,22.61
2022-09-02T13:13:04.773Z,22.67
2022-09-02T13:15:53.243Z,22.72
2022-09-02T13:18:57.883Z,22.78
2022-09-02T13:21:35.205Z,22.74
2022-09-02T13:24:18.295Z,22.66
2022-09-02T13:27:00.709Z,22.57
2022-09-02T13:29:30.340Z,22.72
2022-09-02T13:32:12.233Z,22.78
2022-09-02T13:34:50.609Z,22.67
2022-09-02T13:37:39.425Z,22.70
2022-09-02T13:40:25.786Z,22.64
2022-09-02T13:42:58.574Z,22.67
2022-09-02T13:45:27.566Z,22.52
2022-09-02T13:48:04.640Z,22.44
2022-09-02T13:50:32.501Z,22.49
2022-09-02T13:55:58.434Z,22.53
2022-09-02T13:58:41.188Z,22.55
2022-09-02T14:01:34.819Z,22.53
2022-09-02T14:04:09.386Z,22.61
2022-09-02T14:06:48.706Z,22.64
2022-09-02T14:09:36.611Z,22.71
2022-09-02T14:12:06.752Z,22.76
2022-09-02T14:14:35.056Z,22.77
2022-09-02T14:17:30.146Z,22.74
2022-09-02T14:20:16.171Z,22.82
2022-09-02T14:22:44.070Z,22.76
2022-09-02T14:25:18.693Z,22.75
2022-09-02T14:27:54.042Z,22.65
2022-09-02T14:30:32.160Z,22.60
2022-09-02T14:33:18.125Z,22.65
2022-09-02T14:36:17.956Z,22.62
2022-09-02T14:38:48.669Z,22.55
2022-09-02T14:41:26.594Z,22.52
2022-09-02T14:44:18.180Z,22.49
2022-09-02T14:46:57.136Z,22.56
2022-09-02T14:49:32.604Z,22.65
2022-09-02T14:52:04.010Z,22.72
2022-09-02T14:54:53.639Z,22.77
2022-09-02T14:57:32.702Z,22.63
2022-09-02T15:00:15.087Z,22.63
2022-09-02T15:02:46.466Z,22.61
2022-09-02T15:05:14.978Z,22.48
2022-09-02T15:07:46.002Z,22.50
2022-09-02T15:10:13.859Z,22.48
2022-09-02T15:12:49.742Z,22.44
2022-09-02T15:15:17.235Z,22.33
2022-09-02T15:17:44.437Z,22.23
2022-09-02T15:20:11.834Z,22.14
2022-09-02T15:22:39.360Z,22.07
2022-09-02T15:25:10.406Z,22.07
2022-09-02T15:27:38.025Z,22.06
2022-09-02T15:30:06.490Z,22.10
2022-09-02T15:32:33.448Z,22.12
2022-09-02T15:35:00.408Z,22.07
2022-09-02T15:37:28.000Z,21.95
2022-09-02T15:39:57.487Z,21.90
2022-09-02T15:42:25.014Z,21.94
2022-09-02T15:44:52.207Z,21.92
2022-09-02T15:47:21.018Z,21.92
2022-09-02T15:49:48.042Z,21.85
2022-09-02T15:52:15.842Z,21.78
2022-09-02T15:54:46.540Z,21.69
2022-09-02T15:57:14.736Z,21.66
2022-09-02T15:59:42.468Z,21.63
2022-09-02T16:02:09.584Z,21.57
2022-09-02T16:04:39.270Z,21.56
2022-09-02T16:07:08.894Z,21.49
2022-09-02T16:09:36.174Z,21.51
2022-09-02T16:12:03.718Z,21.47
2022-09-02T16:14:31.068Z,21.49
2022-09-02T16:16:58.153Z,21.38
2022-09-02T16:19:29.939Z,21.37
2022-09-02T16:21:58.235Z,21.43
2022-09-02T16:24:25.486Z,21.41
2022-09-02T16:26:52.548Z,21.38
2022-09-02T16:29:28.270Z,21.27
2022-09-02T16:32:23.664Z,21.19
2022-09-02T16:34:42.915Z,21.10
2022-09-02T16:37:09.838Z,21.04
2022-09-02T16:39:42.299Z,20.98
2022-09-02T16:42:09.567Z,20.91
2022-09-02T16:44:40.417Z,20.86
2022-09-02T16:47:07.430Z,20.77
2022-09-02T16:49:35.091Z,20.71
2022-09-02T16:52:02.355Z,20.56
2022-09-02T16:54:31.461Z,20.41
2022-09-02T16:57:00.781Z,20.30
2022-09-02T16:59:27.869Z,20.26
2022-09-02T17:01:54.923Z,20.13
2022-09-02T17:04:22.120Z,19.97
2022-09-02T17:06:49.392Z,19.91
2022-09-02T17:09:16.603Z,19.76
2022-09-02T17:11:45.404Z,19.64
2022-09-02T17:14:16.510Z,19.53
2022-09-02T17:16:49.155Z,19.38
2022-09-02T17:19:22.345Z,19.23
2022-09-02T17:21:52.342Z,19.11
2022-09-02T17:24:23.939Z,18.95
2022-09-02T17:26:56.326Z,18.81
2022-09-02T17:32:15.423Z,18.55
2022-09-02T17:34:49.861Z,18.51
2022-09-02T17:37:17.211Z,18.37
2022-09-02T17:39:46.859Z,18.23
2022-09-02T17:42:15.202Z,18.11
2022-09-02T17:44:44.695Z,18.06
2022-09-02T17:47:14.647Z,17.97
2022-09-02T17:49:44.674Z,17.88
2022-09-02T17:52:23.338Z,17.82
2022-09-02T17:54:52.639Z,17.76
2022-09-02T17:57:25.598Z,17.66
2022-09-02T17:59:59.101Z,17.63
2022-09-02T18:02:55.642Z,17.54
2022-09-02T18:05:51.946Z,17.48
2022-09-02T18:08:32.432Z,17.34
2022-09-02T18:11:05.290Z,17.23
2022-09-02T18:13:41.011Z,17.25
2022-09-02T18:16:25.749Z,17.08
2022-09-02T18:19:03.133Z,16.92
2022-09-02T18:21:46.680Z,16.77
2022-09-02T18:24:33.606Z,16.65
2022-09-02T18:27:43.698Z,16.54
2022-09-02T18:30:21.308Z,16.47
2022-09-02T18:33:10.478Z,16.31
2022-09-02T18:36:05.363Z,16.22
2022-09-02T18:38:46.640Z,16.16
2022-09-02T18:41:42.133Z,16.04
2022-09-02T18:45:03.611Z,15.94
2022-09-02T18:48:05.904Z,15.92
2022-09-02T18:50:59.346Z,15.88
2022-09-02T18:53:34.421Z,15.82
2022-09-02T18:56:09.905Z,15.81
2022-09-02T18:58:47.134Z,15.73
2022-09-02T19:01:24.493Z,15.64
2022-09-02T19:03:51.994Z,15.54
2022-09-02T19:06:22.626Z,15.50
2022-09-02T19:09:01.497Z,15.41
2022-09-02T19:11:33.729Z,15.38
2022-09-02T19:14:26.556Z,15.35
2022-09-02T19:16:55.761Z,15.33
2022-09-02T19:19:23.005Z,15.39
2022-09-02T19:21:55.306Z,15.45
2022-09-02T19:24:27.042Z,15.54
2022-09-02T19:27:00.710Z,15.45
2022-09-02T19:29:29.138Z,15.50
2022-09-02T19:31:56.376Z,15.48
2022-09-02T19:34:30.126Z,15.49
2022-09-02T19:36:57.587Z,15.41
2022-09-02T19:39:27.098Z,15.45
2022-09-02T19:41:54.317Z,15.35
2022-09-02T19:44:24.159Z,15.26
2022-09-02T19:49:41.652Z,15.19
2022-09-02T19:52:10.994Z,15.20
2022-09-02T19:54:38.943Z,15.07
2022-09-02T19:57:06.208Z,15.07
2022-09-02T19:59:33.647Z,14.96
2022-09-02T20:02:03.385Z,14.88
2022-09-02T20:04:33.342Z,14.81
2022-09-02T20:07:02.789Z,14.87
2022-09-02T20:09:30.105Z,14.94
2022-09-02T20:11:57.541Z,14.94
2022-09-02T20:14:24.938Z,14.82
2022-09-02T20:17:00.630Z,14.70
2022-09-02T20:19:32.172Z,14.56
2022-09-02T20:21:59.790Z,14.41
2022-09-02T20:24:33.342Z,14.34
2022-09-02T20:27:05.413Z,14.27
2022-09-02T20:29:54.812Z,14.14
2022-09-02T20:32:44.399Z,14.05
2022-09-02T20:35:14.410Z,14.03
2022-09-02T20:37:59.763Z,14.04
2022-09-02T20:40:45.988Z,14.03
2022-09-02T20:43:28.422Z,13.89
2022-09-02T20:46:20.016Z,13.89
2022-09-02T20:49:03.798Z,13.95
2022-09-02T20:51:37.917Z,13.97
2022-09-02T20:54:22.673Z,14.01
2022-09-02T20:57:02.389Z,14.06
2022-09-02T20:59:56.488Z,13.97
2022-09-02T21:02:29.386Z,13.96
2022-09-02T21:05:05.934Z,14.02
2022-09-02T21:07:45.647Z,13.95
2022-09-02T21:10:23.088Z,14.06
2022-09-02T21:13:27.617Z,13.96
2022-09-02T21:16:00.924Z,13.96
2022-09-02T21:18:34.401Z,13.73
2022-09-02T21:21:20.588Z,13.85
2022-09-02T21:23:56.554Z,13.60
2022-09-02T21:26:43.444Z,13.66
2022-09-02T21:29:27.763Z,13.69
2022-09-02T21:32:26.150Z,13.79
2022-09-02T21:35:07.658Z,13.81
2022-09-02T21:37:37.766Z,13.67
2022-09-02T21:40:09.418Z,13.72
2022-09-02T21:43:10.855Z,13.78
2022-09-02T21:45:52.468Z,13.69
2022-09-02T21:48:23.120Z,13.71
2022-09-02T21:51:00.161Z,13.73
2022-09-02T21:53:38.851Z,13.78
2022-09-02T21:56:18.177Z,13.81
2022-09-02T21:58:57.208Z,13.81
2022-09-02T22:01:44.879Z,13.72
2022-09-02T22:04:47.843Z,13.66
2022-09-02T22:07:26.324Z,13.64
2022-09-02T22:10:11.171Z,13.65
2022-09-02T22:12:52.004Z,13.70
2022-09-02T22:15:26.771Z,13.78
2022-09-02T22:18:08.392Z,13.80
2022-09-02T22:20:45.136Z,13.76
2022-09-02T22:23:25.798Z,13.66
2022-09-02T22:26:04.006Z,13.54
2022-09-02T22:28:44.260Z,13.48
2022-09-02T22:31:16.261Z,13.40
2022-09-02T22:33:55.813Z,13.39
2022-09-02T22:36:37.061Z,13.42
2022-09-02T22:39:05.561Z,13.42
2022-09-02T22:41:35.187Z,13.37
2022-09-02T22:44:14.209Z,13.27
2022-09-02T22:47:14.122Z,13.37
2022-09-02T22:50:05.209Z,13.30
2022-09-02T22:52:49.627Z,13.24
2022-09-02T22:55:28.485Z,13.23
2022-09-02T22:58:21.399Z,13.17
2022-09-02T23:01:11.407Z,13.19
2022-09-02T23:04:03.115Z,13.09
2022-09-02T23:06:33.419Z,13.00
2022-09-02T23:09:09.019Z,13.01
2022-09-02T23:11:51.500Z,12.95
2022-09-02T23:14:47.947Z,12.88
2022-09-02T23:17:41.698Z,12.81
2022-09-02T23:20:14.838Z,12.88
2022-09-02T23:23:08.499Z,12.80
2022-09-02T23:25:52.433Z,12.67
2022-09-02T23:28:28.253Z,12.78
2022-09-02T23:31:47.590Z,12.66
2022-09-02T23:34:31.402Z,12.60
2022-09-02T23:37:25.246Z,12.65
2022-09-02T23:40:26.297Z,12.60
2022-09-02T23:42:54.385Z,12.55
2022-09-02T23:45:23.036Z,12.54
2022-09-02T23:47:53.056Z,12.43
2022-09-02T23:50:25.457Z,12.61
2022-09-02T23:53:08.033Z,12.66
2022-09-02T23:55:35.529Z,12.49
2022-09-02T23:58:05.517Z,12.48
